Ralph Wenz Field Pinedale US
ICAO: KPNA
IATA: PNA
Category: Medium
Scheduled Services: No

Elevation: 7102 ft
TransAlt. 18000 ft.

Airport Communications:
AWOS 3:118.325
SALT LAKE CITY CNTR:128.35
CTAF/UNICOM:122.8

KPNA Zoom In..

Runways:

(A) RW 11 length 8900 ft width 100 ft
---- / hdg 110

(B) RW 29 length 8900 ft width 100 ft
---- / hdg 290

Location; KPNA
Day. 11 / Time. 19.55 Zulu
* Altimeter: 30.40
* Temperature: 26° c. 78.8°f.
* Wind from: 350° Speed 05 kn.
Dewpoint: -01° c.
Visibility: 10 Statute Miles.
Clouds: Clear (automated report).

KPNA 111955Z AUTO 35005KT 10SM CLR 26/M01 A3040 RMK AO2

Going to: --> -->


Wind From 350°
Speed 05 kn.

 
 
jpsmedia worldairports.se 2020   terms of use